Time;durP1;ratioP1;P1;durP2;ratioP2;P2;SDS_P1;SDS_P2;PMS_P1;PMS_P2;Temp;Humidity;BMP_temperature;BMP_pressure;BME280_temperature;BME280_humidity;BME280_pressure;Samples;Min_cycle;Max_cycle;Signal;HPM_P1;HPM_P2
2021/01/31 00:02:24;;;;;;;21.13;3.50;;;12.30;99.90;;;;;;4732050;30;20032;-76
2021/01/31 00:04:51;;;;;;;12.95;3.20;;;12.20;99.90;;;;;;4730863;30;20033;-76
2021/01/31 00:07:18;;;;;;;13.70;3.28;;;12.20;99.90;;;;;;4731245;30;20035;-76
2021/01/31 00:09:47;;;;;;;20.70;4.55;;;12.20;99.90;;;;;;4732187;30;20036;-77
2021/01/31 00:12:13;;;;;;;11.52;3.05;;;12.30;99.90;;;;;;4729743;30;20036;-76
2021/01/31 00:14:39;;;;;;;12.25;3.33;;;12.30;99.90;;;;;;4732627;30;20078;-76
2021/01/31 00:17:06;;;;;;;29.10;5.20;;;12.30;99.90;;;;;;4730467;30;20033;-76
2021/01/31 00:19:32;;;;;;;12.93;3.50;;;12.30;99.90;;;;;;4732543;30;20033;-77
2021/01/31 00:22:01;;;;;;;13.05;3.53;;;12.30;99.90;;;;;;4730757;30;20442;-76
2021/01/31 00:24:28;;;;;;;16.67;3.70;;;12.30;99.90;;;;;;4733850;30;20033;-77
2021/01/31 00:26:54;;;;;;;18.60;4.53;;;12.40;99.90;;;;;;4734142;30;20033;-77
2021/01/31 00:29:20;;;;;;;20.85;3.92;;;12.40;99.90;;;;;;4734581;30;20029;-76
2021/01/31 00:31:50;;;;;;;15.88;3.47;;;12.40;99.90;;;;;;4738781;30;20044;-77
2021/01/31 00:34:20;;;;;;;17.70;4.00;;;12.40;99.90;;;;;;4733635;30;20514;-76
2021/01/31 00:36:47;;;;;;;19.55;3.20;;;12.40;99.90;;;;;;4742282;30;20032;-75
2021/01/31 00:39:14;;;;;;;6.85;2.30;;;12.40;99.90;;;;;;4740550;30;20028;-76
2021/01/31 00:41:42;;;;;;;13.93;4.28;;;12.50;99.90;;;;;;4735568;30;20036;-76
2021/01/31 00:44:09;;;;;;;15.82;3.00;;;12.40;99.90;;;;;;4740138;30;20392;-76
2021/01/31 00:46:38;;;;;;;14.23;2.88;;;12.50;99.90;;;;;;4744402;30;20036;-76
2021/01/31 00:49:06;;;;;;;11.07;4.00;;;12.50;99.90;;;;;;4737441;30;20406;-76
2021/01/31 00:51:33;;;;;;;12.73;3.42;;;12.50;99.90;;;;;;4727512;30;20071;-76
2021/01/31 00:53:59;;;;;;;10.18;3.28;;;12.50;99.90;;;;;;4726545;30;20107;-76
2021/01/31 00:56:25;;;;;;;10.40;4.00;;;12.50;99.90;;;;;;4728449;30;20069;-76
2021/01/31 00:58:52;;;;;;;14.13;4.30;;;12.60;99.90;;;;;;4728055;30;20376;-76
2021/01/31 01:01:20;;;;;;;12.27;3.30;;;12.60;99.90;;;;;;4725008;30;20106;-76
2021/01/31 01:03:46;;;;;;;18.13;4.15;;;12.60;99.90;;;;;;4730513;30;20435;-76
2021/01/31 01:06:22;;;;;;;15.80;3.72;;;12.50;99.90;;;;;;4731752;30;20090;-76
2021/01/31 01:08:48;;;;;;;15.13;3.65;;;12.60;99.90;;;;;;4729981;30;20040;-76
2021/01/31 01:11:14;;;;;;;12.15;3.00;;;12.60;99.90;;;;;;4726667;30;20029;-75
2021/01/31 01:13:40;;;;;;;27.13;5.32;;;12.60;99.90;;;;;;4728598;30;20056;-76
2021/01/31 01:16:06;;;;;;;11.48;3.95;;;12.60;99.90;;;;;;4725529;30;20491;-76
2021/01/31 01:18:32;;;;;;;11.70;3.53;;;12.70;99.90;;;;;;4741527;30;20443;-76
2021/01/31 01:20:58;;;;;;;10.85;3.58;;;12.70;99.90;;;;;;4731268;30;20106;-75
2021/01/31 01:23:24;;;;;;;15.27;3.60;;;12.70;99.90;;;;;;4727621;30;20479;-76
2021/01/31 01:25:51;;;;;;;19.05;4.80;;;12.70;99.90;;;;;;4731865;30;20521;-76
2021/01/31 01:28:17;;;;;;;11.82;2.90;;;12.60;99.90;;;;;;4730953;30;20135;-76
2021/01/31 01:30:43;;;;;;;21.50;4.00;;;12.70;99.90;;;;;;4731511;30;20179;-76
2021/01/31 01:33:09;;;;;;;20.50;3.25;;;12.70;99.90;;;;;;4736613;30;20036;-76
2021/01/31 01:35:35;;;;;;;15.23;3.20;;;12.70;99.90;;;;;;4726775;30;20029;-76
2021/01/31 01:38:01;;;;;;;13.13;2.75;;;12.70;99.90;;;;;;4725314;30;20039;-76
2021/01/31 01:40:34;;;;;;;14.75;3.83;;;12.70;99.90;;;;;;4730753;30;20175;-76
2021/01/31 01:43:01;;;;;;;18.73;3.22;;;12.70;99.90;;;;;;4733698;30;20044;-76
2021/01/31 01:45:28;;;;;;;13.82;3.83;;;12.70;99.90;;;;;;4734241;30;20036;-76
2021/01/31 01:47:59;;;;;;;16.48;4.45;;;12.70;99.90;;;;;;4731413;30;20033;-76
2021/01/31 01:50:41;;;;;;;15.40;4.50;;;12.70;99.90;;;;;;4731439;30;20037;-76
2021/01/31 01:53:08;;;;;;;14.20;4.32;;;12.70;99.90;;;;;;4725342;30;20437;-76
2021/01/31 01:55:55;;;;;;;14.40;3.83;;;12.70;99.90;;;;;;4729987;30;20103;-76
2021/01/31 01:58:22;;;;;;;15.00;3.42;;;12.70;99.90;;;;;;4727302;30;20546;-75
2021/01/31 02:00:49;;;;;;;25.30;4.75;;;12.70;99.90;;;;;;4729852;30;20044;-76
2021/01/31 02:03:23;;;;;;;12.25;3.40;;;12.70;99.90;;;;;;4728822;30;20372;-76
2021/01/31 02:06:06;;;;;;;19.33;3.35;;;12.70;99.90;;;;;;4731449;30;20507;-76
2021/01/31 02:08:32;;;;;;;12.15;3.08;;;12.70;99.90;;;;;;4731187;30;20039;-76
2021/01/31 02:10:58;;;;;;;24.30;4.85;;;12.70;99.90;;;;;;4741854;30;20110;-75
2021/01/31 02:13:25;;;;;;;18.58;4.15;;;12.70;99.90;;;;;;4735232;30;20036;-76
2021/01/31 02:15:53;;;;;;;12.70;3.38;;;12.70;99.90;;;;;;4730576;30;20040;-76
2021/01/31 02:18:52;;;;;;;10.85;3.10;;;12.70;99.90;;;;;;4731071;30;20116;-76
2021/01/31 02:21:44;;;;;;;18.90;3.58;;;12.70;99.90;;;;;;4732256;30;20040;-76
2021/01/31 02:24:37;;;;;;;12.02;3.92;;;12.70;99.90;;;;;;4727971;30;20115;-75
2021/01/31 02:27:28;;;;;;;38.67;4.63;;;12.70;99.90;;;;;;4730665;30;20080;-75
2021/01/31 02:30:19;;;;;;;17.42;4.43;;;12.70;99.90;;;;;;4714082;30;20037;-77
2021/01/31 02:33:20;;;;;;;10.20;2.97;;;12.70;99.90;;;;;;4740242;30;20501;-76
2021/01/31 02:35:49;;;;;;;12.15;3.58;;;12.80;99.90;;;;;;4730554;30;20041;-76
2021/01/31 02:38:41;;;;;;;19.33;3.10;;;12.80;99.90;;;;;;4731762;30;20044;-76
2021/01/31 02:41:12;;;;;;;18.27;3.10;;;12.80;99.90;;;;;;4729909;30;20407;-76
2021/01/31 02:43:46;;;;;;;15.10;3.58;;;12.80;99.90;;;;;;4718936;30;20079;-76
2021/01/31 02:46:25;;;;;;;10.45;3.83;;;12.80;99.90;;;;;;4729725;30;20045;-76
2021/01/31 02:48:57;;;;;;;15.32;3.60;;;12.80;99.90;;;;;;4724786;30;20037;-77
2021/01/31 02:51:31;;;;;;;17.23;3.20;;;12.80;99.90;;;;;;4731570;30;20515;-76
2021/01/31 02:54:08;;;;;;;18.58;4.35;;;12.80;99.90;;;;;;4731896;30;20040;-76
2021/01/31 02:56:43;;;;;;;13.95;3.85;;;12.80;99.90;;;;;;4724363;30;20570;-76
2021/01/31 02:59:20;;;;;;;10.23;3.25;;;12.80;99.90;;;;;;4729481;30;20111;-76
2021/01/31 03:01:50;;;;;;;12.95;3.28;;;12.80;99.90;;;;;;4729670;30;20046;-76
2021/01/31 03:04:28;;;;;;;10.63;2.85;;;12.90;99.90;;;;;;4738820;30;20029;-76
2021/01/31 03:07:01;;;;;;;14.27;3.08;;;12.90;99.90;;;;;;4730587;30;20051;-76
2021/01/31 03:09:46;;;;;;;16.30;3.30;;;12.90;99.90;;;;;;4730637;30;20529;-76
2021/01/31 03:12:23;;;;;;;13.05;2.80;;;13.00;99.90;;;;;;4728365;30;20044;-76
2021/01/31 03:14:59;;;;;;;11.20;2.85;;;12.90;99.90;;;;;;4734940;30;20464;-76
2021/01/31 03:17:31;;;;;;;12.20;2.75;;;13.00;99.90;;;;;;4730204;30;20064;-76
2021/01/31 03:20:00;;;;;;;27.83;3.78;;;13.00;99.90;;;;;;4729634;30;20079;-76
2021/01/31 03:22:47;;;;;;;16.80;3.85;;;13.00;99.90;;;;;;4731083;30;20127;-75
2021/01/31 03:25:22;;;;;;;17.48;3.25;;;13.00;99.90;;;;;;4730761;30;20483;-76
2021/01/31 03:27:48;;;;;;;14.77;3.22;;;13.00;99.90;;;;;;4730107;30;20056;-76
2021/01/31 03:30:15;;;;;;;18.52;2.88;;;13.00;99.90;;;;;;4730924;30;20043;-76
2021/01/31 03:33:02;;;;;;;16.50;3.60;;;13.00;99.90;;;;;;4730648;30;20029;-76
2021/01/31 03:35:31;;;;;;;16.05;3.25;;;13.00;99.90;;;;;;4747550;30;20436;-76
2021/01/31 03:38:11;;;;;;;18.80;3.85;;;13.00;99.90;;;;;;4739679;30;20039;-75
2021/01/31 03:40:39;;;;;;;9.73;2.92;;;13.00;99.90;;;;;;4730483;30;20092;-76
2021/01/31 03:43:05;;;;;;;17.27;3.13;;;13.10;99.90;;;;;;4733116;30;20036;-76
2021/01/31 03:45:38;;;;;;;19.88;4.05;;;13.10;99.90;;;;;;4734247;30;20040;-76
2021/01/31 03:48:14;;;;;;;23.20;3.65;;;13.10;99.90;;;;;;4733357;30;20037;-76
2021/01/31 03:50:40;;;;;;;21.92;3.25;;;13.10;99.90;;;;;;4733968;30;20037;-76
2021/01/31 03:53:08;;;;;;;10.27;2.55;;;13.10;99.90;;;;;;4733112;30;20056;-76
2021/01/31 03:55:35;;;;;;;12.10;2.83;;;13.10;99.90;;;;;;4731508;30;20053;-76
2021/01/31 03:58:05;;;;;;;13.32;3.53;;;13.20;99.90;;;;;;4728665;30;20487;-76
2021/01/31 04:00:37;;;;;;;25.85;3.97;;;13.20;99.90;;;;;;4731956;30;20052;-76
2021/01/31 04:03:12;;;;;;;12.88;3.58;;;13.20;99.90;;;;;;4733135;30;20036;-76
2021/01/31 04:06:02;;;;;;;11.63;3.28;;;13.20;99.90;;;;;;4747842;30;20395;-76
2021/01/31 04:08:31;;;;;;;14.57;2.97;;;13.20;99.90;;;;;;4739621;30;20048;-76
2021/01/31 04:10:57;;;;;;;18.48;3.85;;;13.20;99.90;;;;;;4732110;30;20048;-76
2021/01/31 04:13:24;;;;;;;17.77;3.53;;;13.30;99.90;;;;;;4732274;30;20655;-76
2021/01/31 04:15:58;;;;;;;15.52;3.10;;;13.30;99.90;;;;;;4730530;30;20415;-75
2021/01/31 04:18:25;;;;;;;15.57;2.85;;;13.30;99.90;;;;;;4733606;30;20032;-76
2021/01/31 04:20:52;;;;;;;21.65;3.30;;;13.30;99.90;;;;;;4732559;30;20067;-76
2021/01/31 04:23:20;;;;;;;9.90;2.92;;;13.30;99.90;;;;;;4732761;30;20060;-76
2021/01/31 04:25:47;;;;;;;16.42;3.80;;;13.30;99.90;;;;;;4730697;30;20044;-76
2021/01/31 04:28:24;;;;;;;14.55;2.78;;;13.30;99.90;;;;;;4733193;30;20044;-76
2021/01/31 04:30:57;;;;;;;14.60;4.05;;;13.30;99.90;;;;;;4723020;30;20483;-76
2021/01/31 04:33:23;;;;;;;;;;;13.30;99.90;;;;;;4733055;30;22327;-76
2021/01/31 04:35:50;;;;;;;15.25;4.10;;;13.30;99.90;;;;;;4739854;30;20020;-76
2021/01/31 04:38:17;;;;;;;11.32;2.47;;;13.30;99.90;;;;;;4749921;30;20032;-76
2021/01/31 04:40:43;;;;;;;15.77;3.00;;;13.40;99.90;;;;;;4737667;30;20053;-76
2021/01/31 04:43:13;;;;;;;26.75;4.03;;;13.40;99.90;;;;;;4725603;30;20040;-76
2021/01/31 04:45:40;;;;;;;13.80;2.40;;;13.50;99.90;;;;;;4731564;30;20404;-76
2021/01/31 04:48:17;;;;;;;21.92;3.28;;;13.40;99.90;;;;;;4715178;30;20026;-76
2021/01/31 04:51:05;;;;;;;13.40;3.78;;;13.50;99.90;;;;;;4724402;30;20072;-76
2021/01/31 04:53:53;;;;;;;23.95;4.95;;;13.50;99.90;;;;;;4731063;30;20025;-76
2021/01/31 04:56:33;;;;;;;16.25;4.10;;;13.60;99.90;;;;;;4732305;30;20057;-76
2021/01/31 04:59:32;;;;;;;15.55;3.83;;;13.60;99.90;;;;;;4726656;30;20044;-76
2021/01/31 05:02:10;;;;;;;19.35;3.92;;;13.60;99.90;;;;;;4730296;30;20045;-76
2021/01/31 05:04:57;;;;;;;21.23;4.05;;;13.60;99.90;;;;;;4731494;30;20041;-77
2021/01/31 05:07:31;;;;;;;18.52;4.88;;;13.60;99.90;;;;;;4730007;30;20025;-76
2021/01/31 05:09:58;;;;;;;15.90;3.47;;;13.70;99.90;;;;;;4740022;30;20037;-76
2021/01/31 05:12:39;;;;;;;17.45;3.97;;;13.60;99.90;;;;;;4731353;30;20033;-75
2021/01/31 05:15:20;;;;;;;21.73;5.22;;;13.70;99.90;;;;;;4726784;30;20032;-76
2021/01/31 05:17:49;;;;;;;24.88;4.25;;;13.70;99.90;;;;;;4744386;30;20123;-77
2021/01/31 05:20:19;;;;;;;15.20;4.18;;;13.70;99.90;;;;;;4735999;30;20048;-76
2021/01/31 05:22:49;;;;;;;21.85;5.57;;;13.70;99.90;;;;;;4727761;30;20087;-76
2021/01/31 05:25:19;;;;;;;16.35;2.95;;;13.70;99.90;;;;;;4732188;30;20051;-76
2021/01/31 05:27:46;;;;;;;22.13;4.38;;;13.70;99.90;;;;;;4725708;30;20093;-76
2021/01/31 05:30:15;;;;;;;25.33;3.97;;;13.70;99.90;;;;;;4729915;30;20621;-76
2021/01/31 05:32:59;;;;;;;14.82;4.13;;;13.70;99.90;;;;;;4731149;30;20546;-75
2021/01/31 05:35:27;;;;;;;18.00;3.83;;;13.70;99.90;;;;;;4727820;30;20033;-76
2021/01/31 05:37:53;;;;;;;17.40;3.92;;;13.80;99.90;;;;;;4730913;30;20623;-76
2021/01/31 05:40:40;;;;;;;17.90;5.53;;;13.70;99.90;;;;;;4731011;30;20037;-76
2021/01/31 05:43:11;;;;;;;18.80;5.30;;;13.80;99.90;;;;;;4731242;30;20033;-76
2021/01/31 05:45:42;;;;;;;16.98;4.07;;;13.80;99.90;;;;;;4723951;30;20025;-76
2021/01/31 05:48:19;;;;;;;19.48;4.05;;;13.80;99.90;;;;;;4733052;30;20045;-76
2021/01/31 05:50:45;;;;;;;20.15;4.35;;;13.80;99.90;;;;;;4728609;30;20029;-76
2021/01/31 05:53:26;;;;;;;21.55;5.78;;;13.80;99.90;;;;;;4717289;30;20021;-76
2021/01/31 05:56:20;;;;;;;16.05;3.85;;;13.80;99.90;;;;;;4730366;30;20075;-76
2021/01/31 05:58:47;;;;;;;12.00;4.13;;;13.80;99.90;;;;;;4727558;30;20037;-76
2021/01/31 06:01:14;;;;;;;21.35;4.15;;;13.90;99.90;;;;;;4725714;30;20045;-76
2021/01/31 06:03:40;;;;;;;15.98;4.05;;;13.80;99.90;;;;;;4730640;30;20033;-76
2021/01/31 06:06:24;;;;;;;17.10;3.80;;;13.90;99.90;;;;;;4728211;30;20032;-76
2021/01/31 06:08:57;;;;;;;24.23;4.28;;;13.80;99.90;;;;;;4730567;30;20035;-76
2021/01/31 06:11:28;;;;;;;19.20;5.45;;;13.90;99.90;;;;;;4729010;30;20064;-76
2021/01/31 06:14:28;;;;;;;16.10;4.57;;;13.90;99.90;;;;;;4716596;30;20262;-76
2021/01/31 06:17:25;;;;;;;16.30;4.40;;;13.90;99.90;;;;;;4719982;30;20632;-76
2021/01/31 06:20:09;;;;;;;19.42;5.38;;;13.90;99.90;;;;;;4743616;30;20036;-76
2021/01/31 06:22:50;;;;;;;20.27;4.63;;;13.90;99.90;;;;;;4717281;30;20025;-76
2021/01/31 06:25:35;;;;;;;19.10;5.90;;;13.90;99.90;;;;;;4726841;30;20033;-76
2021/01/31 06:28:11;;;;;;;15.98;4.35;;;13.90;99.90;;;;;;4725223;30;20033;-76
2021/01/31 06:31:02;;;;;;;18.25;4.65;;;13.90;99.90;;;;;;4736454;30;20037;-77
2021/01/31 06:33:29;;;;;;;24.63;5.47;;;13.90;99.90;;;;;;4730486;30;20115;-76
2021/01/31 06:36:08;;;;;;;13.45;3.72;;;13.90;99.90;;;;;;4729675;30;20417;-76
2021/01/31 06:38:50;;;;;;;14.60;4.25;;;13.90;99.90;;;;;;4728877;30;20040;-76
2021/01/31 06:41:47;;;;;;;26.98;4.70;;;13.90;99.90;;;;;;4730715;30;20150;-76
2021/01/31 06:44:20;;;;;;;18.75;3.92;;;13.90;99.90;;;;;;4727805;30;20124;-76
2021/01/31 06:47:25;;;;;;;14.73;5.55;;;14.00;99.90;;;;;;4731447;30;20033;-76
2021/01/31 06:50:09;;;;;;;10.68;3.38;;;14.00;99.90;;;;;;4728157;30;20068;-76
2021/01/31 06:52:53;;;;;;;23.15;6.25;;;14.00;99.90;;;;;;4727456;30;20029;-76
2021/01/31 06:55:49;;;;;;;21.65;5.18;;;14.00;99.90;;;;;;4729522;30;20410;-76
2021/01/31 06:58:22;;;;;;;24.65;6.53;;;14.10;99.90;;;;;;4723739;30;20032;-76
2021/01/31 07:01:09;;;;;;;20.83;4.63;;;14.10;99.90;;;;;;4722814;30;20139;-76
2021/01/31 07:04:13;;;;;;;14.75;5.18;;;14.00;99.90;;;;;;4727294;30;20120;-76
2021/01/31 07:07:03;;;;;;;12.68;4.07;;;14.10;99.90;;;;;;4722677;30;20043;-76
2021/01/31 07:09:59;;;;;;;18.25;4.85;;;14.10;99.90;;;;;;4724398;30;20029;-76
2021/01/31 07:13:16;;;;;;;20.85;5.53;;;14.10;99.90;;;;;;4730608;30;20052;-76
2021/01/31 07:15:53;;;;;;;15.52;4.43;;;14.10;99.90;;;;;;4712622;30;20051;-76
2021/01/31 07:18:22;;;;;;;14.02;4.40;;;14.10;99.90;;;;;;4733207;30;20044;-76
2021/01/31 07:20:53;;;;;;;27.00;6.30;;;14.10;99.90;;;;;;4737504;30;20036;-76
2021/01/31 07:23:36;;;;;;;14.18;5.22;;;14.10;99.90;;;;;;4742618;30;20042;-76
2021/01/31 07:26:12;;;;;;;18.38;4.68;;;14.10;99.90;;;;;;4734552;30;20040;-76
2021/01/31 07:28:41;;;;;;;13.95;4.47;;;14.20;99.90;;;;;;4732578;30;20025;-76
2021/01/31 07:31:38;;;;;;;19.55;4.25;;;14.20;99.90;;;;;;4735766;30;20123;-76
2021/01/31 07:34:14;;;;;;;14.23;4.97;;;14.20;99.90;;;;;;4738022;30;20091;-76
2021/01/31 07:37:11;;;;;;;20.67;4.75;;;14.20;99.90;;;;;;4734566;30;20810;-76
2021/01/31 07:39:43;;;;;;;14.13;4.28;;;14.20;99.90;;;;;;4732945;30;20523;-76
2021/01/31 07:42:10;;;;;;;12.88;4.35;;;14.20;99.90;;;;;;4741820;30;20100;-76
2021/01/31 07:44:38;;;;;;;12.43;3.92;;;14.30;99.90;;;;;;4733337;30;20045;-76
2021/01/31 07:47:05;;;;;;;14.18;4.93;;;14.30;99.90;;;;;;4732580;30;20041;-76
2021/01/31 07:49:59;;;;;;;13.63;4.63;;;14.30;99.90;;;;;;4730816;30;20051;-76
2021/01/31 07:52:43;;;;;;;12.38;4.30;;;14.30;99.90;;;;;;4730502;30;20177;-76
2021/01/31 07:55:24;;;;;;;21.45;5.82;;;14.30;99.90;;;;;;4725430;30;20481;-76
2021/01/31 07:58:19;;;;;;;11.90;3.47;;;14.40;99.90;;;;;;4731805;30;20048;-75
2021/01/31 08:00:51;;;;;;;8.88;3.63;;;14.40;99.90;;;;;;4721617;30;20052;-76
2021/01/31 08:03:25;;;;;;;11.10;3.72;;;14.40;99.90;;;;;;4731006;30;20041;-75
2021/01/31 08:05:56;;;;;;;17.38;4.38;;;14.40;99.90;;;;;;4730922;30;20029;-76
2021/01/31 08:08:46;;;;;;;10.27;4.05;;;14.40;99.90;;;;;;4730257;30;20036;-76
2021/01/31 08:11:38;;;;;;;13.95;3.75;;;14.40;99.90;;;;;;4730202;30;20114;-76
2021/01/31 08:14:09;;;;;;;10.13;4.38;;;14.50;99.90;;;;;;4729428;30;20028;-76
2021/01/31 08:16:47;;;;;;;10.45;3.92;;;14.60;99.90;;;;;;4731148;30;20553;-76
2021/01/31 08:19:17;;;;;;;11.45;4.15;;;14.60;99.90;;;;;;4731419;30;20041;-77
2021/01/31 08:22:08;;;;;;;13.07;3.78;;;14.70;99.90;;;;;;4729414;30;20048;-76
2021/01/31 08:25:01;;;;;;;15.18;4.82;;;14.70;99.90;;;;;;4730219;30;20514;-76
2021/01/31 08:27:40;;;;;;;15.55;3.28;;;14.70;99.90;;;;;;4731132;30;20066;-76
2021/01/31 08:30:20;;;;;;;16.58;4.07;;;14.70;99.90;;;;;;4731485;30;20036;-76
2021/01/31 08:32:59;;;;;;;13.98;3.38;;;14.70;99.90;;;;;;4728467;30;20037;-76
2021/01/31 08:35:26;;;;;;;13.10;4.03;;;14.70;99.90;;;;;;4730071;30;20060;-76
2021/01/31 08:38:16;;;;;;;7.93;3.38;;;14.70;99.90;;;;;;4731049;30;20373;-76
2021/01/31 08:41:00;;;;;;;20.30;5.25;;;14.70;99.90;;;;;;4727368;30;20052;-76
2021/01/31 08:43:50;;;;;;;14.02;4.78;;;14.70;99.90;;;;;;4730327;30;20127;-76
2021/01/31 08:46:24;;;;;;;13.10;4.05;;;14.60;99.90;;;;;;4729427;30;20098;-72
2021/01/31 08:48:51;;;;;;;10.52;4.28;;;14.60;99.90;;;;;;4730289;30;20503;-72
2021/01/31 08:51:21;;;;;;;12.75;3.72;;;14.60;99.90;;;;;;4731323;30;20518;-71
2021/01/31 08:54:11;;;;;;;17.55;4.28;;;14.60;99.90;;;;;;4731969;30;20561;-71
2021/01/31 08:56:55;;;;;;;21.85;4.50;;;14.50;99.90;;;;;;4731425;30;20056;-71
2021/01/31 08:59:28;;;;;;;20.20;4.57;;;14.60;99.90;;;;;;4729557;30;20032;-72
2021/01/31 09:02:03;;;;;;;14.68;4.53;;;14.50;99.90;;;;;;4728196;30;20047;-72
2021/01/31 09:04:42;;;;;;;20.25;5.35;;;14.50;99.90;;;;;;4732423;30;20438;-72
2021/01/31 09:07:13;;;;;;;22.90;5.63;;;14.40;99.90;;;;;;4739002;30;20439;-72
2021/01/31 09:09:51;;;;;;;17.83;4.35;;;14.40;99.90;;;;;;4736505;30;20040;-72
2021/01/31 09:12:20;;;;;;;17.80;4.35;;;14.40;99.90;;;;;;4733792;30;20043;-71
2021/01/31 09:14:47;;;;;;;13.88;3.63;;;14.30;99.90;;;;;;4731708;30;20040;-71
2021/01/31 09:17:26;;;;;;;18.45;5.18;;;14.40;99.90;;;;;;4735650;30;20254;-70
2021/01/31 09:20:14;;;;;;;13.55;5.00;;;14.30;99.90;;;;;;4732392;30;20398;-70
2021/01/31 09:22:44;;;;;;;15.98;3.85;;;14.30;99.90;;;;;;4736935;30;20040;-70
2021/01/31 09:25:15;;;;;;;20.10;4.55;;;14.30;99.90;;;;;;4726297;30;20055;-71
2021/01/31 09:27:59;;;;;;;16.30;4.53;;;14.40;99.90;;;;;;4726436;30;20099;-71
2021/01/31 09:30:27;;;;;;;11.02;3.97;;;14.40;99.90;;;;;;4723506;30;20111;-70
2021/01/31 09:33:07;;;;;;;16.50;3.97;;;14.30;99.90;;;;;;4727299;30;20048;-72
2021/01/31 09:35:37;;;;;;;9.57;4.07;;;14.30;99.90;;;;;;4733014;30;20682;-71
2021/01/31 09:38:23;;;;;;;20.77;4.75;;;14.30;99.90;;;;;;4729867;30;20179;-70
2021/01/31 09:40:53;;;;;;;12.07;3.72;;;14.30;99.90;;;;;;4729332;30;20056;-71
2021/01/31 09:43:24;;;;;;;13.57;4.63;;;14.40;99.90;;;;;;4729408;30;20032;-73
2021/01/31 09:45:57;;;;;;;15.52;3.78;;;14.40;99.90;;;;;;4729962;30;20048;-71
2021/01/31 09:48:26;;;;;;;19.45;4.30;;;14.50;99.90;;;;;;4730778;30;20040;-73
2021/01/31 09:50:59;;;;;;;21.33;4.55;;;14.50;99.90;;;;;;4730421;30;20506;-71
2021/01/31 09:53:38;;;;;;;11.90;3.50;;;14.50;99.90;;;;;;4730206;30;20511;-70
2021/01/31 09:56:06;;;;;;;18.98;4.47;;;14.50;99.90;;;;;;4730762;30;20060;-70
2021/01/31 09:58:42;;;;;;;16.17;4.60;;;14.50;99.90;;;;;;4729141;30;20156;-71
2021/01/31 10:01:27;;;;;;;16.80;4.40;;;14.50;99.90;;;;;;4726510;30;20037;-71
2021/01/31 10:04:05;;;;;;;19.83;4.53;;;14.60;99.90;;;;;;4731041;30;20048;-71
2021/01/31 10:06:43;;;;;;;15.75;5.07;;;14.60;99.90;;;;;;4728400;30;20074;-70
2021/01/31 10:09:09;;;;;;;11.32;3.90;;;14.60;99.90;;;;;;4731195;30;20047;-71
2021/01/31 10:11:44;;;;;;;13.45;3.75;;;14.60;99.90;;;;;;4732170;30;20548;-71
2021/01/31 10:14:14;;;;;;;16.10;4.35;;;14.60;99.90;;;;;;4733630;30;20549;-72
2021/01/31 10:16:42;;;;;;;17.83;4.15;;;14.50;99.90;;;;;;4732214;30;20038;-72
2021/01/31 10:19:17;;;;;;;23.17;5.43;;;14.50;99.90;;;;;;4734407;30;20078;-73
2021/01/31 10:21:55;;;;;;;8.95;4.32;;;14.50;99.90;;;;;;4730739;30;20056;-72
2021/01/31 10:24:30;;;;;;;17.98;5.03;;;14.60;99.90;;;;;;4735884;30;20184;-72
2021/01/31 10:27:18;;;;;;;17.10;5.03;;;14.50;99.90;;;;;;4729293;30;20050;-71
2021/01/31 10:29:44;;;;;;;24.58;5.70;;;14.60;99.90;;;;;;4730302;30;20123;-73
2021/01/31 10:32:27;;;;;;;10.90;4.80;;;14.60;99.90;;;;;;4731236;30;20039;-71
2021/01/31 10:34:55;;;;;;;14.40;3.60;;;14.60;99.90;;;;;;4732918;30;20056;-71
2021/01/31 10:37:37;;;;;;;13.48;4.60;;;14.50;99.90;;;;;;4730802;30;20071;-71
2021/01/31 10:40:08;;;;;;;15.40;4.03;;;14.50;99.90;;;;;;4729317;30;20090;-74
2021/01/31 10:42:34;;;;;;;11.95;4.50;;;14.50;99.90;;;;;;4729515;30;20036;-71
2021/01/31 10:45:07;;;;;;;17.13;5.22;;;14.50;99.90;;;;;;4729758;30;20086;-71
2021/01/31 10:47:33;;;;;;;15.18;4.30;;;14.40;99.90;;;;;;4728877;30;20090;-70
2021/01/31 10:49:59;;;;;;;21.42;4.35;;;14.40;99.90;;;;;;4729917;30;20395;-71
2021/01/31 10:52:25;;;;;;;21.73;5.28;;;14.40;99.90;;;;;;4729530;30;20037;-71
2021/01/31 10:54:51;;;;;;;15.93;4.60;;;14.40;99.90;;;;;;4726028;30;20132;-71
2021/01/31 10:57:17;;;;;;;20.92;5.05;;;14.40;99.90;;;;;;4727679;30;20076;-70
2021/01/31 10:59:43;;;;;;;14.55;4.60;;;14.40;99.90;;;;;;4728053;30;20044;-74
2021/01/31 11:02:10;;;;;;;13.30;3.63;;;14.50;99.90;;;;;;4730226;30;20037;-71
2021/01/31 11:04:36;;;;;;;14.48;5.43;;;14.50;99.90;;;;;;4729751;30;20075;-71
2021/01/31 11:07:02;;;;;;;20.02;5.85;;;14.50;99.90;;;;;;4729606;30;20033;-71
2021/01/31 11:09:28;;;;;;;17.75;4.30;;;14.50;99.90;;;;;;4734256;30;20031;-70
2021/01/31 11:11:55;;;;;;;12.43;4.07;;;14.50;99.90;;;;;;4732986;30;20079;-70
2021/01/31 11:14:22;;;;;;;20.50;5.70;;;14.50;99.90;;;;;;4729329;30;20052;-71
2021/01/31 11:16:49;;;;;;;9.85;3.42;;;14.50;99.90;;;;;;4732986;30;20394;-70
2021/01/31 11:19:15;;;;;;;25.33;6.32;;;14.50;99.90;;;;;;4730383;30;20577;-71
2021/01/31 11:21:41;;;;;;;18.25;4.63;;;14.50;99.90;;;;;;4729234;30;20116;-70
2021/01/31 11:24:07;;;;;;;20.88;4.82;;;14.50;99.90;;;;;;4729467;30;21488;-72
2021/01/31 11:26:33;;;;;;;20.83;5.13;;;14.40;99.90;;;;;;4728827;30;20045;-73
2021/01/31 11:28:59;;;;;;;10.50;4.05;;;14.40;99.90;;;;;;4729479;30;20036;-71
2021/01/31 11:31:25;;;;;;;17.48;5.03;;;14.30;99.90;;;;;;4728135;30;20087;-73
2021/01/31 11:33:54;;;;;;;11.52;3.40;;;14.30;99.90;;;;;;4729881;30;20467;-71
2021/01/31 11:36:22;;;;;;;13.05;4.10;;;14.30;99.90;;;;;;4728544;30;20503;-71
2021/01/31 11:38:48;;;;;;;14.43;4.60;;;14.20;99.90;;;;;;4729906;30;20119;-70
2021/01/31 11:41:16;;;;;;;14.90;4.75;;;14.30;99.90;;;;;;4728477;30;20037;-71
2021/01/31 11:43:59;;;;;;;16.17;4.57;;;14.30;99.90;;;;;;4729281;30;20043;-73
2021/01/31 11:46:34;;;;;;;16.23;4.07;;;14.30;99.90;;;;;;4724980;30;20044;-73
2021/01/31 11:49:01;;;;;;;17.55;5.20;;;14.30;99.90;;;;;;4727600;30;20200;-70
2021/01/31 11:51:27;;;;;;;8.10;2.83;;;14.30;99.90;;;;;;4729188;30;20036;-71
2021/01/31 11:53:53;;;;;;;8.05;1.85;;;14.00;99.90;;;;;;4729194;30;20098;-71
2021/01/31 11:56:19;;;;;;;4.90;2.10;;;13.70;99.90;;;;;;4725918;30;20045;-71
2021/01/31 11:58:46;;;;;;;9.13;2.35;;;13.60;99.90;;;;;;4718184;30;20049;-71
2021/01/31 12:01:13;;;;;;;7.90;1.52;;;13.50;99.90;;;;;;4728765;30;20040;-71
2021/01/31 12:03:43;;;;;;;7.30;1.85;;;13.40;99.90;;;;;;4730271;30;20032;-71
2021/01/31 12:06:09;;;;;;;5.43;2.10;;;13.40;99.90;;;;;;4731960;30;20044;-71
2021/01/31 12:08:35;;;;;;;5.53;1.42;;;13.40;99.90;;;;;;4732148;30;20033;-71
2021/01/31 12:11:02;;;;;;;3.53;1.42;;;13.40;99.90;;;;;;4719018;30;20044;-72
2021/01/31 12:13:28;;;;;;;4.28;1.73;;;13.40;99.90;;;;;;4725640;30;20092;-73
2021/01/31 12:15:54;;;;;;;2.65;1.50;;;13.20;99.90;;;;;;4733511;30;20123;-72
2021/01/31 12:18:20;;;;;;;2.92;1.73;;;13.20;99.90;;;;;;4733713;30;20091;-71
2021/01/31 12:20:47;;;;;;;1.73;1.25;;;13.00;99.90;;;;;;4733899;30;20522;-70
2021/01/31 12:23:13;;;;;;;5.55;1.10;;;13.10;99.90;;;;;;4733258;30;20106;-70
2021/01/31 12:25:39;;;;;;;3.85;0.90;;;13.10;99.90;;;;;;4732259;30;20590;-71
2021/01/31 12:28:05;;;;;;;2.92;1.30;;;13.10;99.90;;;;;;4733447;30;20041;-72
2021/01/31 12:30:32;;;;;;;6.55;1.52;;;13.10;99.90;;;;;;4733577;30;20040;-70
2021/01/31 12:33:00;;;;;;;3.42;1.02;;;13.20;99.90;;;;;;4733084;30;20063;-73
2021/01/31 12:35:27;;;;;;;3.80;1.05;;;13.30;99.90;;;;;;4734499;30;20043;-73
2021/01/31 12:37:54;;;;;;;4.72;0.90;;;13.30;99.90;;;;;;4729626;30;20036;-70
2021/01/31 12:40:21;;;;;;;5.45;1.10;;;13.30;99.90;;;;;;4732270;30;20541;-71
2021/01/31 12:42:48;;;;;;;8.43;1.95;;;13.20;99.90;;;;;;4733618;30;20028;-71
2021/01/31 12:45:18;;;;;;;2.80;1.27;;;13.10;99.90;;;;;;4729176;30;20044;-71
2021/01/31 12:47:45;;;;;;;9.75;1.00;;;13.10;99.90;;;;;;4733463;30;20115;-72
2021/01/31 12:50:14;;;;;;;6.85;1.88;;;13.20;99.90;;;;;;4733209;30;20060;-71
2021/01/31 12:52:41;;;;;;;1.52;0.88;;;13.10;99.90;;;;;;4733362;30;20405;-71
2021/01/31 12:55:09;;;;;;;1.60;1.10;;;13.10;99.90;;;;;;4730920;30;20040;-71
2021/01/31 12:57:35;;;;;;;4.13;1.10;;;13.10;99.90;;;;;;4733242;30;20509;-71
2021/01/31 13:00:01;;;;;;;2.72;0.98;;;13.20;99.90;;;;;;4732919;30;20044;-71
2021/01/31 13:02:28;;;;;;;6.40;1.17;;;13.20;99.90;;;;;;4733106;30;20037;-73
2021/01/31 13:04:54;;;;;;;9.02;1.20;;;13.30;99.90;;;;;;4734527;30;20049;-70
2021/01/31 13:07:20;;;;;;;4.03;1.70;;;13.30;99.90;;;;;;4732921;30;20029;-72
2021/01/31 13:09:46;;;;;;;2.78;1.55;;;13.30;99.90;;;;;;4733087;30;20514;-71
2021/01/31 13:12:12;;;;;;;9.95;4.88;;;13.20;99.90;;;;;;4732953;30;20032;-71